Mary's Harbour, Canada
Current Conditions -  °F | °C
As of 2:42 AM on Wednesday 28 Jan 2015 (Local Time) from CYMH Reporting Station
Light Snow Light Snow  
Wind Chill: -12°   Ceiling: 16000
Heat Index:   Visibility: 1.7mi
Dew Point:   Wind: 13mph
Humidity: 92%   Direction: 20°NNE
Pressure: 30.23"   Gusts: 20mph
Location:  52.31°N, 55.84°W
Report Text: CYMH 280642Z AUTO 02011G17KT 350V050 1 3/4SM -SN OVC160 M15/M16 A3023 RMK PRESFR SLP238
Loading
Personal Weather Stations






























Interactive Weather Map New forecast layout! Learn more

10-Day Weather Forecast

Advertisements
Track Severe Weather on mobile